Time;durP1;ratioP1;P1;durP2;ratioP2;P2;SDS_P1;SDS_P2;PMS_P1;PMS_P2;Temp;Humidity;BMP_temperature;BMP_pressure;BME280_temperature;BME280_humidity;BME280_pressure;Samples;Min_cycle;Max_cycle;Signal;HPM_P1;HPM_P2
2023/10/24 00:00:33;;;;;;;8.20;4.60;;;9.60;99.90;;;;;;4999739;28;20208;-65
2023/10/24 00:03:00;;;;;;;7.50;4.63;;;10.20;99.90;;;;;;4981831;28;20238;-66
2023/10/24 00:05:27;;;;;;;10.52;4.00;;;10.40;99.90;;;;;;4987402;28;20207;-66
2023/10/24 00:07:54;;;;;;;8.77;4.50;;;10.20;99.90;;;;;;4987079;28;20218;-66
2023/10/24 00:10:21;;;;;;;5.05;4.15;;;9.90;99.90;;;;;;4962281;28;20233;-66
2023/10/24 00:12:48;;;;;;;5.20;3.88;;;10.20;99.90;;;;;;4986457;28;20202;-66
2023/10/24 00:15:16;;;;;;;6.80;4.30;;;10.20;99.90;;;;;;4996573;28;20205;-66
2023/10/24 00:17:43;;;;;;;7.60;4.65;;;10.30;99.90;;;;;;4983062;28;20203;-66
2023/10/24 00:20:10;;;;;;;7.25;4.45;;;10.80;99.90;;;;;;4988746;28;20232;-66
2023/10/24 00:22:37;;;;;;;6.80;4.47;;;10.30;99.90;;;;;;4983428;28;20751;-66
2023/10/24 00:25:05;;;;;;;5.90;4.47;;;10.20;99.90;;;;;;4997653;28;20206;-65
2023/10/24 00:27:32;;;;;;;6.68;4.60;;;10.30;99.90;;;;;;4959766;28;20214;-66
2023/10/24 00:29:59;;;;;;;6.85;4.53;;;10.20;99.90;;;;;;4989598;28;20211;-65
2023/10/24 00:32:27;;;;;;;5.93;4.47;;;10.20;99.90;;;;;;4987451;28;20206;-66
2023/10/24 00:34:54;;;;;;;5.85;4.07;;;10.30;99.90;;;;;;4991718;28;20210;-65
2023/10/24 00:37:20;;;;;;;5.68;4.38;;;10.40;99.90;;;;;;4984493;28;20202;-65
2023/10/24 00:39:47;;;;;;;6.68;4.68;;;10.30;99.90;;;;;;4986488;28;20688;-66
2023/10/24 00:42:14;;;;;;;6.57;4.82;;;10.30;99.90;;;;;;4961225;28;20690;-66
2023/10/24 00:44:41;;;;;;;7.57;4.40;;;10.30;99.90;;;;;;4985922;28;20795;-66
2023/10/24 00:47:08;;;;;;;4.95;4.45;;;10.30;99.90;;;;;;4993036;28;20202;-65
2023/10/24 00:49:36;;;;;;;5.82;4.95;;;10.30;99.90;;;;;;4983320;28;20210;-66
2023/10/24 00:52:03;;;;;;;6.70;4.63;;;10.40;99.90;;;;;;4987505;28;20671;-66
2023/10/24 00:54:32;;;;;;;6.28;4.68;;;10.30;99.90;;;;;;4979155;28;20923;-66
2023/10/24 00:56:59;;;;;;;8.48;5.22;;;10.40;99.90;;;;;;4988738;28;20919;-66
2023/10/24 00:59:27;;;;;;;8.18;5.20;;;10.40;99.90;;;;;;4943594;28;20293;-66
2023/10/24 01:01:54;;;;;;;6.15;4.65;;;10.40;99.90;;;;;;4997211;28;20210;-66
2023/10/24 01:04:22;;;;;;;8.80;4.85;;;10.50;99.90;;;;;;4981731;28;20230;-66
2023/10/24 01:06:50;;;;;;;6.40;4.80;;;10.50;99.90;;;;;;4997311;28;20692;-65
2023/10/24 01:09:17;;;;;;;6.97;4.70;;;10.40;99.90;;;;;;4988064;28;20253;-65
2023/10/24 01:11:44;;;;;;;8.73;5.63;;;10.50;99.90;;;;;;4984302;28;20202;-65
2023/10/24 01:14:11;;;;;;;6.03;4.70;;;10.50;99.90;;;;;;4964613;28;20666;-66
2023/10/24 01:16:43;;;;;;;6.13;5.05;;;10.60;99.90;;;;;;4992032;28;20207;-66
2023/10/24 01:19:10;;;;;;;7.60;4.85;;;10.50;99.90;;;;;;4982993;28;20202;-66
2023/10/24 01:21:36;;;;;;;8.82;5.13;;;10.00;99.90;;;;;;5000591;28;20273;-65
2023/10/24 01:24:06;;;;;;;8.98;5.53;;;10.60;99.90;;;;;;4987157;28;20230;-66
2023/10/24 01:36:39;;;;;;;6.28;5.30;;;10.70;99.90;;;;;;5000531;28;20272;-66
2023/10/24 01:39:07;;;;;;;8.52;5.63;;;10.50;99.90;;;;;;5000368;28;20210;-66
2023/10/24 01:41:34;;;;;;;6.57;5.47;;;10.60;99.90;;;;;;4984577;28;20839;-65
2023/10/24 01:44:01;;;;;;;13.02;5.63;;;10.80;99.90;;;;;;5003615;28;20233;-66
2023/10/24 01:46:28;;;;;;;10.05;5.30;;;10.60;99.90;;;;;;4967162;28;20214;-66
2023/10/24 01:48:55;;;;;;;6.55;5.15;;;10.60;99.90;;;;;;4995645;28;20673;-66
2023/10/24 01:51:21;;;;;;;9.57;5.53;;;10.70;99.90;;;;;;4991212;28;20203;-65
2023/10/24 01:53:48;;;;;;;6.47;5.43;;;10.40;99.90;;;;;;5001503;28;20202;-66
2023/10/24 01:56:16;;;;;;;8.20;5.22;;;10.60;99.90;;;;;;4990731;28;20217;-66
2023/10/24 01:58:43;;;;;;;6.80;5.75;;;10.70;99.90;;;;;;4987248;28;20779;-66
2023/10/24 02:01:10;;;;;;;7.28;5.85;;;8.80;99.90;;;;;;4965047;28;21378;-66
2023/10/24 02:03:37;;;;;;;10.35;5.50;;;10.70;99.90;;;;;;4997973;28;20233;-66
2023/10/24 02:06:04;;;;;;;8.82;6.00;;;10.70;99.90;;;;;;4983136;28;20202;-66
2023/10/24 02:08:30;;;;;;;9.02;6.05;;;10.70;99.90;;;;;;4997137;28;20198;-66
2023/10/24 02:10:57;;;;;;;7.53;5.60;;;10.50;99.90;;;;;;4983899;28;20674;-66
2023/10/24 02:13:25;;;;;;;7.13;5.72;;;10.60;99.90;;;;;;4983906;28;20218;-66
2023/10/24 02:15:54;;;;;;;8.45;6.05;;;10.60;99.90;;;;;;4978505;28;20213;-66
2023/10/24 02:18:21;;;;;;;8.88;6.10;;;11.50;99.90;;;;;;4958999;28;20823;-66
2023/10/24 02:20:48;;;;;;;5.35;4.85;;;;;;;;;;4989742;28;20228;-66
2023/10/24 02:23:14;;;;;;;9.35;5.43;;;10.70;99.90;;;;;;4981782;28;20222;-66
2023/10/24 02:25:41;;;;;;;8.32;6.85;;;10.70;99.90;;;;;;4989033;28;20205;-66
2023/10/24 02:28:08;;;;;;;8.15;6.13;;;10.70;99.90;;;;;;4968139;28;21029;-66
2023/10/24 02:30:38;;;;;;;11.88;6.07;;;10.70;99.90;;;;;;4993759;28;20594;-66
2023/10/24 02:33:05;;;;;;;8.18;6.20;;;10.80;99.90;;;;;;4944967;28;20218;-67
2023/10/24 02:35:32;;;;;;;8.02;5.78;;;10.70;99.90;;;;;;4993544;28;20692;-66
2023/10/24 02:37:59;;;;;;;8.48;6.60;;;;;;;;;;4981025;28;20221;-66
2023/10/24 02:40:25;;;;;;;6.72;5.55;;;10.70;99.90;;;;;;4998716;28;20665;-66
2023/10/24 02:42:52;;;;;;;7.50;5.75;;;10.70;99.90;;;;;;4984920;28;20245;-66
2023/10/24 02:45:19;;;;;;;11.30;6.18;;;10.80;99.90;;;;;;4974327;28;20401;-67
2023/10/24 02:47:47;;;;;;;8.07;6.53;;;10.80;99.90;;;;;;4957458;28;20219;-66
2023/10/24 02:50:14;;;;;;;7.65;6.18;;;10.80;99.90;;;;;;4989321;28;21307;-66
2023/10/24 02:52:41;;;;;;;8.02;6.03;;;10.80;99.90;;;;;;4979382;28;20567;-66
2023/10/24 02:55:08;;;;;;;10.18;5.88;;;10.80;99.90;;;;;;4994819;28;20206;-67
2023/10/24 02:57:35;;;;;;;9.27;6.43;;;10.70;99.90;;;;;;4990012;28;20205;-66
2023/10/24 03:00:03;;;;;;;9.88;6.10;;;10.80;99.90;;;;;;4968053;28;20347;-66
2023/10/24 03:02:30;;;;;;;7.80;6.30;;;10.80;99.90;;;;;;4984457;28;20459;-66
2023/10/24 03:04:59;;;;;;;10.15;6.80;;;10.80;99.90;;;;;;4955306;28;20924;-67
2023/10/24 03:07:26;;;;;;;9.27;6.03;;;10.80;99.90;;;;;;4976540;28;20742;-66
2023/10/24 03:09:52;;;;;;;8.10;6.43;;;10.70;99.90;;;;;;4986740;28;20199;-66
2023/10/24 03:12:19;;;;;;;9.15;6.75;;;10.90;99.90;;;;;;4986192;28;20335;-67
2023/10/24 03:14:46;;;;;;;10.40;6.57;;;10.80;99.90;;;;;;4981946;28;20210;-66
2023/10/24 03:17:13;;;;;;;8.23;6.07;;;10.70;99.90;;;;;;4973609;28;20951;-66
2023/10/24 03:19:40;;;;;;;8.48;6.45;;;10.80;99.90;;;;;;4959044;28;20677;-67
2023/10/24 03:22:08;;;;;;;9.35;6.07;;;10.80;99.90;;;;;;4991190;28;20198;-66
2023/10/24 03:24:34;;;;;;;11.13;7.13;;;10.80;99.90;;;;;;4986643;28;20240;-66
2023/10/24 03:27:01;;;;;;;11.15;6.32;;;10.80;99.90;;;;;;4990882;28;20287;-66
2023/10/24 03:29:28;;;;;;;10.07;6.93;;;10.80;99.90;;;;;;4972763;28;20210;-66
2023/10/24 03:31:55;;;;;;;9.45;6.72;;;10.80;99.90;;;;;;4977875;28;20210;-66
2023/10/24 03:34:22;;;;;;;9.32;7.40;;;10.80;99.90;;;;;;4932902;28;20225;-67
2023/10/24 03:36:48;;;;;;;8.07;6.30;;;10.80;99.90;;;;;;4995851;28;20202;-66
2023/10/24 03:39:16;;;;;;;8.48;6.78;;;10.90;99.90;;;;;;4984821;28;20233;-67
2023/10/24 03:41:43;;;;;;;10.63;7.40;;;10.80;99.90;;;;;;4997511;28;20198;-67
2023/10/24 03:44:10;;;;;;;10.20;6.90;;;10.80;99.90;;;;;;4990088;28;20222;-67
2023/10/24 03:46:37;;;;;;;15.02;7.28;;;10.70;99.90;;;;;;4980255;28;20198;-67
2023/10/24 03:49:04;;;;;;;10.85;6.93;;;10.90;99.90;;;;;;4997000;28;20212;-66
2023/10/24 03:51:30;;;;;;;10.80;6.75;;;10.80;99.90;;;;;;4961801;28;20215;-66
2023/10/24 03:53:57;;;;;;;8.40;6.95;;;10.80;99.90;;;;;;4981214;28;20213;-67
2023/10/24 03:56:27;;;;;;;9.60;6.45;;;10.80;99.90;;;;;;4988986;28;20412;-66
2023/10/24 03:58:54;;;;;;;9.18;6.88;;;10.90;99.90;;;;;;4995897;28;20208;-67
2023/10/24 04:01:21;;;;;;;11.15;7.25;;;10.90;99.90;;;;;;4968697;28;20303;-67
2023/10/24 04:03:47;;;;;;;10.70;6.75;;;10.90;99.90;;;;;;4991047;28;20237;-67
2023/10/24 04:06:15;;;;;;;8.35;6.32;;;10.90;99.90;;;;;;4953546;28;20455;-67
2023/10/24 04:08:42;;;;;;;11.52;6.60;;;10.90;99.90;;;;;;4975173;28;20202;-67
2023/10/24 04:11:14;;;;;;;8.98;6.78;;;10.90;99.90;;;;;;4975615;28;20319;-67
2023/10/24 04:13:42;;;;;;;9.27;6.60;;;10.90;99.90;;;;;;4986906;28;20692;-67
2023/10/24 04:16:10;;;;;;;10.98;6.30;;;10.90;99.90;;;;;;4976899;28;20221;-67
2023/10/24 04:18:37;;;;;;;7.75;6.43;;;10.90;99.90;;;;;;4982787;28;20342;-67
2023/10/24 04:21:04;;;;;;;9.05;6.82;;;10.90;99.90;;;;;;4956936;28;20199;-67
2023/10/24 04:23:30;;;;;;;10.43;6.18;;;10.90;99.90;;;;;;4984827;28;20195;-67
2023/10/24 04:25:57;;;;;;;12.55;6.65;;;11.00;99.90;;;;;;4976584;28;20223;-67
2023/10/24 04:28:24;;;;;;;8.02;6.38;;;11.00;99.90;;;;;;4989008;28;20229;-67
2023/10/24 04:30:54;;;;;;;9.10;6.85;;;11.00;99.90;;;;;;4986660;28;20194;-67
2023/10/24 04:33:20;;;;;;;8.32;6.47;;;12.50;99.90;;;;;;4947293;28;20899;-67
2023/10/24 04:35:50;;;;;;;11.70;7.05;;;11.00;99.90;;;;;;4995597;28;20381;-67
2023/10/24 04:38:17;;;;;;;9.63;6.88;;;11.00;99.90;;;;;;4934571;28;20664;-67
2023/10/24 04:40:44;;;;;;;10.48;7.38;;;11.00;99.90;;;;;;4984505;28;20216;-68
2023/10/24 04:43:11;;;;;;;13.32;7.45;;;11.30;99.90;;;;;;4979703;28;20345;-67
2023/10/24 04:45:39;;;;;;;8.20;6.75;;;11.00;99.90;;;;;;4980923;28;20237;-67
2023/10/24 04:48:07;;;;;;;8.82;6.75;;;11.00;99.90;;;;;;4984451;28;20599;-67
2023/10/24 04:50:38;;;;;;;10.48;6.32;;;11.00;99.90;;;;;;4977983;28;20223;-67
2023/10/24 04:53:04;;;;;;;11.63;6.57;;;11.10;99.90;;;;;;4941318;28;20320;-68
2023/10/24 04:55:31;;;;;;;13.05;7.00;;;11.10;99.90;;;;;;4985106;28;20728;-68
2023/10/24 04:57:58;;;;;;;7.88;6.20;;;11.10;99.90;;;;;;4977071;28;20199;-68
2023/10/24 05:00:26;;;;;;;10.07;6.35;;;11.10;99.90;;;;;;4989158;28;20223;-67
2023/10/24 05:02:53;;;;;;;8.80;6.57;;;11.10;99.90;;;;;;5000216;28;20249;-67
2023/10/24 05:05:21;;;;;;;8.95;6.53;;;11.20;99.90;;;;;;4949976;28;20447;-67
2023/10/24 05:07:48;;;;;;;7.00;6.07;;;11.10;99.90;;;;;;4961480;28;20720;-67
2023/10/24 05:10:15;;;;;;;7.65;5.63;;;11.10;99.90;;;;;;4985144;28;20287;-67
2023/10/24 05:12:42;;;;;;;7.57;6.22;;;11.10;99.90;;;;;;4984953;28;20207;-67
2023/10/24 05:15:10;;;;;;;7.75;6.63;;;11.10;99.90;;;;;;4989299;28;20771;-67
2023/10/24 05:17:36;;;;;;;10.85;6.50;;;11.10;99.90;;;;;;5000125;28;20302;-67
2023/10/24 05:20:07;;;;;;;8.55;6.75;;;11.10;99.90;;;;;;4993529;28;20616;-68
2023/10/24 05:22:35;;;;;;;6.97;6.28;;;11.20;99.90;;;;;;4949345;28;21675;-67
2023/10/24 05:25:02;;;;;;;7.72;6.68;;;11.10;99.90;;;;;;4988422;28;20219;-67
2023/10/24 05:27:30;;;;;;;11.68;6.82;;;14.30;99.90;;;;;;4984325;28;21094;-68
2023/10/24 05:29:57;;;;;;;8.18;6.10;;;11.00;99.90;;;;;;4999971;28;20212;-67
2023/10/24 05:32:24;;;;;;;7.82;6.20;;;11.40;99.90;;;;;;4997364;28;21064;-67
2023/10/24 05:34:51;;;;;;;13.10;6.32;;;11.10;99.90;;;;;;5001790;28;20212;-67
2023/10/24 05:37:18;;;;;;;8.98;6.78;;;11.10;99.90;;;;;;4956286;28;20209;-67
2023/10/24 05:39:46;;;;;;;7.55;6.47;;;11.20;99.90;;;;;;4990683;28;20206;-67
2023/10/24 05:42:13;;;;;;;8.30;6.82;;;11.10;99.90;;;;;;4980182;28;20693;-67
2023/10/24 05:44:39;;;;;;;8.65;7.03;;;11.20;99.90;;;;;;4978604;28;20233;-67
2023/10/24 05:47:06;;;;;;;12.38;7.13;;;11.20;99.90;;;;;;4993030;28;20198;-67
2023/10/24 05:49:34;;;;;;;7.30;6.15;;;11.20;99.90;;;;;;4984636;28;20780;-67
2023/10/24 05:52:01;;;;;;;8.88;6.85;;;11.20;99.90;;;;;;4986302;28;20202;-67
2023/10/24 05:54:27;;;;;;;8.55;6.78;;;11.20;99.90;;;;;;4953116;28;20220;-67
2023/10/24 05:56:55;;;;;;;7.85;6.38;;;11.20;99.90;;;;;;4982334;28;20224;-67
2023/10/24 05:59:22;;;;;;;8.02;6.32;;;11.40;99.90;;;;;;4981878;28;20208;-67
2023/10/24 06:01:49;;;;;;;8.05;6.50;;;11.20;99.90;;;;;;4992333;28;20209;-67
2023/10/24 06:04:16;;;;;;;12.45;6.43;;;11.30;99.90;;;;;;4991003;28;20205;-66
2023/10/24 06:06:43;;;;;;;10.32;6.63;;;11.30;99.90;;;;;;4977970;28;20792;-67
2023/10/24 06:09:12;;;;;;;8.82;6.47;;;11.30;99.90;;;;;;4958503;28;20217;-67
2023/10/24 06:11:39;;;;;;;7.72;6.32;;;11.20;99.90;;;;;;4986029;28;20638;-67
2023/10/24 06:14:08;;;;;;;8.90;6.68;;;11.20;99.90;;;;;;4993863;28;21409;-67
2023/10/24 06:16:35;;;;;;;7.82;6.30;;;11.30;99.90;;;;;;4975783;28;20221;-67
2023/10/24 06:19:02;;;;;;;11.07;7.53;;;11.30;99.90;;;;;;4985184;28;20218;-67
2023/10/24 06:21:29;;;;;;;9.55;6.53;;;11.20;99.90;;;;;;4991071;28;20224;-67
2023/10/24 06:23:56;;;;;;;10.50;7.03;;;11.40;99.90;;;;;;4965676;28;20210;-67
2023/10/24 06:26:23;;;;;;;10.15;6.80;;;11.30;99.90;;;;;;4940972;28;20245;-67
2023/10/24 06:28:49;;;;;;;6.82;6.13;;;11.30;99.90;;;;;;4993945;28;22157;-67
2023/10/24 06:31:18;;;;;;;8.57;6.65;;;11.20;99.90;;;;;;4985009;28;20201;-67
2023/10/24 06:33:45;;;;;;;10.18;7.00;;;11.30;99.90;;;;;;4999559;28;20191;-67
2023/10/24 06:36:12;;;;;;;8.90;7.30;;;10.30;99.90;;;;;;4993685;28;20202;-67
2023/10/24 06:38:39;;;;;;;9.07;6.90;;;;;;;;;;4982219;28;20447;-67
2023/10/24 06:41:08;;;;;;;10.07;6.53;;;11.20;99.90;;;;;;4958783;28;20206;-67
2023/10/24 06:43:35;;;;;;;9.05;6.95;;;11.20;99.90;;;;;;4985499;28;20206;-67
2023/10/24 06:46:04;;;;;;;9.07;6.55;;;11.30;99.90;;;;;;4991967;28;20234;-67
2023/10/24 06:48:32;;;;;;;10.30;7.28;;;11.70;99.90;;;;;;4966760;28;20315;-67
2023/10/24 06:50:59;;;;;;;10.23;6.38;;;11.40;99.90;;;;;;5001675;28;20220;-67
2023/10/24 06:53:26;;;;;;;7.93;6.38;;;11.40;99.90;;;;;;4977331;28;20225;-67
2023/10/24 06:55:59;;;;;;;8.38;6.88;;;11.30;99.90;;;;;;4962509;28;20746;-68
2023/10/24 06:58:26;;;;;;;9.00;6.97;;;11.40;99.90;;;;;;4969638;28;20787;-67
2023/10/24 07:00:52;;;;;;;11.13;6.78;;;11.40;99.90;;;;;;4986762;28;20222;-67
2023/10/24 07:03:19;;;;;;;11.50;6.75;;;11.50;99.90;;;;;;4958899;28;20362;-67
2023/10/24 07:05:52;;;;;;;8.57;6.40;;;11.40;99.90;;;;;;4981074;28;20237;-68
2023/10/24 07:08:18;;;;;;;8.75;6.18;;;11.40;99.90;;;;;;4970000;28;21189;-67
2023/10/24 07:10:45;;;;;;;7.82;6.45;;;11.40;99.90;;;;;;4993207;28;20198;-67
2023/10/24 07:13:12;;;;;;;9.30;7.03;;;11.40;99.90;;;;;;4938418;28;20755;-67
2023/10/24 07:15:39;;;;;;;10.90;6.22;;;11.50;99.90;;;;;;4995387;28;20575;-67
2023/10/24 07:18:07;;;;;;;8.45;6.32;;;11.40;99.90;;;;;;4979087;28;20669;-67
2023/10/24 07:20:36;;;;;;;11.23;6.40;;;11.40;99.90;;;;;;4991268;28;20206;-67
2023/10/24 07:23:04;;;;;;;12.75;7.82;;;11.50;99.90;;;;;;4997567;28;20229;-67
2023/10/24 07:25:31;;;;;;;7.53;6.70;;;12.50;99.90;;;;;;4980136;28;20230;-67
2023/10/24 07:27:58;;;;;;;9.35;7.03;;;11.60;99.90;;;;;;4947704;28;20429;-68
2023/10/24 07:30:25;;;;;;;8.48;6.75;;;11.60;99.90;;;;;;4992590;28;20332;-67
2023/10/24 07:32:53;;;;;;;10.23;7.22;;;11.60;99.90;;;;;;4983084;28;21143;-67
2023/10/24 07:35:21;;;;;;;9.40;6.82;;;11.50;99.90;;;;;;4974005;28;20859;-67
2023/10/24 07:37:48;;;;;;;11.02;6.60;;;11.60;99.90;;;;;;4995435;28;20386;-66
2023/10/24 07:40:18;;;;;;;11.85;6.82;;;11.60;99.90;;;;;;4979517;28;20207;-68
2023/10/24 07:42:44;;;;;;;12.98;7.13;;;11.60;99.90;;;;;;4957821;28;20632;-68
2023/10/24 07:45:12;;;;;;;9.05;7.30;;;11.60;99.90;;;;;;4974139;28;20206;-68
2023/10/24 07:47:39;;;;;;;12.63;7.80;;;11.60;99.90;;;;;;4993119;28;20889;-67
2023/10/24 07:50:08;;;;;;;9.45;7.55;;;11.60;99.90;;;;;;4979981;28;20992;-68
2023/10/24 07:52:34;;;;;;;10.25;7.22;;;11.60;99.90;;;;;;4982291;28;20236;-68
2023/10/24 07:55:01;;;;;;;8.82;7.18;;;11.50;99.90;;;;;;4982947;28;20779;-68
2023/10/24 07:57:30;;;;;;;9.98;6.65;;;11.80;99.90;;;;;;4994549;28;20209;-68
2023/10/24 07:59:57;;;;;;;10.45;7.10;;;11.60;99.90;;;;;;4962508;28;20213;-67
2023/10/24 08:02:24;;;;;;;8.73;6.70;;;11.60;99.90;;;;;;4996297;28;20234;-67
2023/10/24 08:04:51;;;;;;;9.02;6.07;;;11.50;99.90;;;;;;4987362;28;20202;-68
2023/10/24 08:07:18;;;;;;;11.35;6.88;;;11.60;99.90;;;;;;4989923;28;20279;-68
2023/10/24 08:09:44;;;;;;;9.98;6.63;;;11.60;99.90;;;;;;4997119;28;20423;-68
2023/10/24 08:12:11;;;;;;;9.32;6.65;;;11.80;99.90;;;;;;4988165;28;20210;-67
2023/10/24 08:14:40;;;;;;;7.72;6.07;;;11.60;99.90;;;;;;4955040;28;21216;-68
2023/10/24 08:17:06;;;;;;;7.45;6.32;;;11.70;99.90;;;;;;5001737;28;20206;-67
2023/10/24 08:19:33;;;;;;;10.57;6.25;;;11.70;99.90;;;;;;4989831;28;20201;-68
2023/10/24 08:22:00;;;;;;;6.85;5.30;;;11.60;99.90;;;;;;5001402;28;20317;-67
2023/10/24 08:24:27;;;;;;;8.85;5.75;;;11.70;99.90;;;;;;4991001;28;20225;-68
2023/10/24 08:26:54;;;;;;;9.77;6.18;;;11.70;99.90;;;;;;4985542;28;20252;-68
2023/10/24 08:29:20;;;;;;;7.80;5.95;;;11.70;99.90;;;;;;4993942;28;20214;-67
2023/10/24 08:31:48;;;;;;;8.15;5.22;;;11.70;99.90;;;;;;4959739;28;20319;-67
2023/10/24 08:34:15;;;;;;;7.80;5.45;;;13.40;99.90;;;;;;4997995;28;20202;-67
2023/10/24 08:36:43;;;;;;;6.50;5.03;;;11.70;99.90;;;;;;4990002;28;20822;-67
2023/10/24 08:39:10;;;;;;;8.60;5.15;;;11.70;99.90;;;;;;5005437;28;20206;-68
2023/10/24 08:41:37;;;;;;;12.38;5.95;;;11.80;99.90;;;;;;5001689;28;20209;-67
2023/10/24 08:44:05;;;;;;;6.20;4.93;;;11.80;99.90;;;;;;4992194;28;20202;-67
2023/10/24 08:46:33;;;;;;;7.72;5.57;;;11.80;99.90;;;;;;4961662;28;20593;-67
2023/10/24 08:49:04;;;;;;;10.18;5.97;;;11.80;99.90;;;;;;5001561;28;20197;-67
2023/10/24 08:51:31;;;;;;;8.55;5.55;;;11.90;99.90;;;;;;4983152;28;20213;-67
2023/10/24 08:53:58;;;;;;;10.77;6.65;;;11.80;99.90;;;;;;5005225;28;20210;-67
2023/10/24 08:56:26;;;;;;;9.38;5.57;;;11.80;99.90;;;;;;4989284;28;20206;-67
2023/10/24 08:58:55;;;;;;;8.35;5.68;;;11.90;99.90;;;;;;4986474;28;20202;-68
2023/10/24 09:01:22;;;;;;;8.30;5.20;;;12.00;99.90;;;;;;4970767;28;20209;-68
2023/10/24 09:03:49;;;;;;;5.93;4.75;;;11.90;99.90;;;;;;4979460;28;20334;-68
2023/10/24 09:06:20;;;;;;;6.50;5.00;;;11.80;99.90;;;;;;4983753;28;20352;-68
2023/10/24 09:08:48;;;;;;;6.35;4.70;;;11.90;99.90;;;;;;4992758;28;20470;-68
2023/10/24 09:11:15;;;;;;;5.50;4.55;;;12.00;99.90;;;;;;5003639;28;20198;-67
2023/10/24 09:13:42;;;;;;;6.18;4.90;;;11.90;99.90;;;;;;4981183;28;20206;-68
2023/10/24 09:16:10;;;;;;;5.20;3.95;;;12.00;99.90;;;;;;5002617;28;20673;-68
2023/10/24 09:18:38;;;;;;;8.23;5.05;;;11.90;99.90;;;;;;4959412;28;20281;-68
2023/10/24 09:21:07;;;;;;;8.18;4.78;;;11.90;99.90;;;;;;4988934;28;20209;-67
2023/10/24 09:23:36;;;;;;;5.63;4.63;;;12.10;99.90;;;;;;4984310;28;20986;-68
2023/10/24 09:26:04;;;;;;;8.32;5.07;;;12.10;99.90;;;;;;4999916;28;20564;-68
2023/10/24 09:28:31;;;;;;;8.82;5.43;;;12.00;99.90;;;;;;4996577;28;20190;-68
2023/10/24 09:30:59;;;;;;;8.07;5.40;;;12.00;99.90;;;;;;4987278;28;20237;-67
2023/10/24 09:33:27;;;;;;;10.45;5.60;;;12.10;99.90;;;;;;4965638;28;20608;-67
2023/10/24 09:35:54;;;;;;;7.63;5.78;;;12.10;99.90;;;;;;5000693;28;20225;-67
2023/10/24 09:38:22;;;;;;;9.52;6.40;;;12.10;99.90;;;;;;4985958;28;20247;-68
2023/10/24 09:40:51;;;;;;;7.05;5.63;;;12.10;99.90;;;;;;5005055;28;20201;-67
2023/10/24 09:43:21;;;;;;;9.30;6.07;;;12.10;99.90;;;;;;4998257;28;20202;-68
2023/10/24 09:45:48;;;;;;;9.88;6.60;;;12.20;99.90;;;;;;4981595;28;20984;-68
2023/10/24 09:48:17;;;;;;;7.47;5.40;;;12.30;99.90;;;;;;4989200;28;20205;-68
2023/10/24 09:50:44;;;;;;;8.00;6.00;;;11.90;99.90;;;;;;4985543;28;20347;-68
2023/10/24 09:53:13;;;;;;;12.65;7.00;;;12.20;99.90;;;;;;4987572;28;20206;-68
2023/10/24 09:55:41;;;;;;;9.93;6.47;;;12.20;99.90;;;;;;5003916;28;20201;-67
2023/10/24 09:58:10;;;;;;;8.15;5.60;;;12.30;99.90;;;;;;5006144;28;20209;-68
2023/10/24 10:00:37;;;;;;;8.13;6.00;;;12.30;99.90;;;;;;4998945;28;20194;-67
2023/10/24 10:03:05;;;;;;;9.68;6.15;;;12.20;99.90;;;;;;4984027;28;20541;-67
2023/10/24 10:05:33;;;;;;;8.57;6.68;;;12.20;99.90;;;;;;4956971;28;20202;-68
2023/10/24 10:08:02;;;;;;;10.63;6.30;;;12.30;99.90;;;;;;4987096;28;20237;-68
2023/10/24 10:10:30;;;;;;;11.07;6.60;;;12.20;99.90;;;;;;4991727;28;20202;-68
2023/10/24 10:13:00;;;;;;;7.55;6.07;;;12.30;99.90;;;;;;4988555;28;20206;-68
2023/10/24 10:15:46;;;;;;;8.13;5.78;;;8.90;99.90;;;;;;4989479;28;20199;-68
2023/10/24 10:18:21;;;;;;;10.02;7.07;;;11.90;99.90;;;;;;4978305;28;20212;-67
2023/10/24 10:21:01;;;;;;;15.00;9.23;;;12.20;99.90;;;;;;4953237;28;20209;-68
2023/10/24 10:23:50;;;;;;;16.00;9.05;;;12.20;99.90;;;;;;4978774;28;20217;-67
2023/10/24 10:26:23;;;;;;;9.35;6.47;;;12.20;99.90;;;;;;4958126;28;20226;-68
2023/10/24 10:29:04;;;;;;;6.50;5.05;;;12.20;99.90;;;;;;4975582;28;20202;-67
2023/10/24 10:31:45;;;;;;;10.73;5.10;;;13.40;99.90;;;;;;4978263;28;21838;-67
2023/10/24 10:34:12;;;;;;;7.25;5.43;;;12.30;99.90;;;;;;4932005;28;23064;-68
2023/10/24 10:36:40;;;;;;;7.65;5.28;;;12.20;99.90;;;;;;4931914;28;20506;-68
2023/10/24 10:39:10;;;;;;;6.65;5.35;;;12.30;99.90;;;;;;4972344;28;20899;-68
2023/10/24 10:41:39;;;;;;;6.03;4.93;;;12.30;99.90;;;;;;4970860;28;20222;-67
2023/10/24 10:44:37;;;;;;;5.00;3.67;;;12.70;99.90;;;;;;4986491;28;20222;-68
2023/10/24 10:47:06;;;;;;;6.10;5.07;;;12.70;99.90;;;;;;4984785;28;20582;-67
2023/10/24 10:49:43;;;;;;;11.00;5.10;;;12.60;99.90;;;;;;4960613;28;20285;-66
2023/10/24 10:52:20;;;;;;;5.50;4.90;;;12.70;99.90;;;;;;4949433;28;20222;-67
2023/10/24 10:54:58;;;;;;;8.98;5.50;;;12.50;99.90;;;;;;4976916;28;20232;-67
2023/10/24 10:57:30;;;;;;;6.35;5.05;;;12.50;99.90;;;;;;4954890;28;20419;-67
2023/10/24 11:00:03;;;;;;;6.57;4.68;;;12.60;99.90;;;;;;4988894;28;20217;-67
2023/10/24 11:03:04;;;;;;;7.35;5.30;;;12.60;99.90;;;;;;4977280;28;20240;-67
2023/10/24 11:05:49;;;;;;;6.45;4.80;;;13.10;99.90;;;;;;4956195;28;20531;-67
2023/10/24 11:08:21;;;;;;;5.65;5.05;;;12.50;99.90;;;;;;4941853;28;20629;-67
2023/10/24 11:10:53;;;;;;;10.07;4.93;;;12.50;99.90;;;;;;4968911;28;20589;-67
2023/10/24 11:13:38;;;;;;;5.88;4.70;;;12.50;99.90;;;;;;4965078;28;20345;-67
2023/10/24 11:16:05;;;;;;;5.13;4.30;;;12.50;99.90;;;;;;4974063;28;20226;-67
2023/10/24 11:18:36;;;;;;;5.35;4.80;;;12.60;99.90;;;;;;4963105;28;20927;-67
2023/10/24 11:21:05;;;;;;;8.88;4.78;;;12.50;99.90;;;;;;4953608;28;20701;-67
2023/10/24 11:23:32;;;;;;;4.05;3.30;;;12.60;99.90;;;;;;4949223;28;20257;-67
2023/10/24 11:26:00;;;;;;;7.97;4.40;;;13.10;99.90;;;;;;4974262;28;20253;-67
2023/10/24 11:28:28;;;;;;;8.07;5.43;;;13.30;99.90;;;;;;4967772;28;20225;-67
2023/10/24 11:30:55;;;;;;;6.47;5.43;;;13.10;99.90;;;;;;4985440;28;21148;-67
2023/10/24 11:33:23;;;;;;;7.50;5.43;;;12.80;99.90;;;;;;4977123;28;20598;-67
2023/10/24 11:35:51;;;;;;;7.97;4.85;;;12.80;99.90;;;;;;4950589;28;20227;-68
2023/10/24 11:38:18;;;;;;;11.23;4.80;;;12.80;99.90;;;;;;4942098;28;20225;-67
2023/10/24 11:40:47;;;;;;;6.50;4.22;;;12.80;99.90;;;;;;4968643;28;20685;-68
2023/10/24 11:43:17;;;;;;;9.98;5.22;;;12.80;99.90;;;;;;4980152;28;20217;-67
2023/10/24 11:45:45;;;;;;;19.35;5.50;;;12.60;99.90;;;;;;4973631;28;20206;-67
2023/10/24 11:48:12;;;;;;;10.35;5.80;;;12.70;99.90;;;;;;4989346;28;20644;-67
2023/10/24 11:50:46;;;;;;;13.60;6.32;;;12.70;99.90;;;;;;4975053;28;20206;-67
2023/10/24 11:53:20;;;;;;;6.57;5.07;;;12.60;99.90;;;;;;4938374;28;20803;-67
2023/10/24 11:55:48;;;;;;;12.15;5.32;;;12.70;99.90;;;;;;4993103;28;20197;-67
2023/10/24 11:58:15;;;;;;;7.68;5.07;;;12.60;99.90;;;;;;4957668;28;20304;-67
2023/10/24 12:00:44;;;;;;;9.20;5.32;;;13.10;99.90;;;;;;4981244;28;21341;-67
2023/10/24 12:03:11;;;;;;;9.88;5.60;;;13.10;99.90;;;;;;4972527;28;24130;-67
2023/10/24 12:05:38;;;;;;;13.00;5.43;;;13.00;99.90;;;;;;4972991;28;20232;-67
2023/10/24 12:08:06;;;;;;;11.45;5.30;;;12.70;99.90;;;;;;4933970;28;20315;-67
2023/10/24 12:10:35;;;;;;;11.38;4.68;;;12.80;99.90;;;;;;4976982;28;20233;-67
2023/10/24 12:13:03;;;;;;;7.95;5.00;;;12.80;99.90;;;;;;4967403;28;22148;-67
2023/10/24 12:15:31;;;;;;;6.20;4.53;;;12.70;99.90;;;;;;4966349;28;20230;-67
2023/10/24 12:18:03;;;;;;;18.70;5.72;;;12.60;99.90;;;;;;4988051;28;20565;-67
2023/10/24 12:20:31;;;;;;;8.00;5.07;;;12.80;99.90;;;;;;4992699;28;20843;-67
2023/10/24 12:22:58;;;;;;;7.53;5.55;;;12.70;99.90;;;;;;4941696;28;20620;-67
2023/10/24 12:25:24;;;;;;;9.98;4.80;;;12.80;99.90;;;;;;4991231;28;20899;-68
2023/10/24 12:27:53;;;;;;;7.68;4.95;;;12.80;99.90;;;;;;4977125;28;20240;-66
2023/10/24 12:30:20;;;;;;;9.45;5.55;;;13.10;99.90;;;;;;4981153;28;20535;-67
2023/10/24 12:32:47;;;;;;;12.85;5.22;;;13.20;99.90;;;;;;4993001;28;20212;-67
2023/10/24 12:35:14;;;;;;;6.10;5.20;;;13.10;99.90;;;;;;4994373;28;20323;-67
2023/10/24 12:37:40;;;;;;;13.10;4.93;;;13.00;99.90;;;;;;4982894;28;20424;-67
2023/10/24 12:40:08;;;;;;;6.25;4.60;;;12.90;99.90;;;;;;4952705;28;20708;-67
2023/10/24 12:42:35;;;;;;;8.27;5.28;;;12.90;99.90;;;;;;4991638;28;20201;-67
2023/10/24 12:45:04;;;;;;;10.68;5.75;;;12.90;99.90;;;;;;4967121;28;20562;-67
2023/10/24 12:47:30;;;;;;;8.40;4.57;;;12.90;99.90;;;;;;4969525;28;20222;-67
2023/10/24 12:49:57;;;;;;;5.00;4.60;;;12.90;99.90;;;;;;4948700;28;20230;-67
2023/10/24 12:52:24;;;;;;;7.18;4.68;;;12.90;99.90;;;;;;4979042;28;21175;-67
2023/10/24 12:54:51;;;;;;;5.40;4.30;;;13.00;99.90;;;;;;4932996;28;20237;-67
2023/10/24 12:57:19;;;;;;;6.18;4.53;;;13.00;99.90;;;;;;4987033;28;20222;-67
2023/10/24 12:59:46;;;;;;;4.47;4.07;;;13.00;99.90;;;;;;4968890;28;20232;-67